Skip Navigation Links Skip Navigation Links

Current Weather

Pond Inlet, Nunavut

For information only: do not use for flight planning or navigation.
Latest weather
Observation time Friday, May 25, 2018 8:23 AM EDT
Local time Friday, May 25, 2018 8:40 AM EDT
Flight conditions Instrument Meteorological Conditions
Winds
Wind direction West (260°)
Wind speed 2 mph
Visibility 1.25 mi.
Present weather light snow
Sky condition
Ceiling 1,900 ft. broken clouds
Cloud layer broken clouds 1,900 ft.
Cloud layer overcast 2,700 ft.
Temperature 23°F
Dewpoint 19°F
Altimeter 29.86 in.Hg
Derived measurements
Relative humidity 86%
Wind chill 23°F
Density altitude -2284 ft.
Sea-level pressure 29.88 in.Hg
Remarks
Special weather observation.
Fully automated report.
Visibility.
METAR SPECI CYIO 251223Z AUTO 26002KT 1 1/4SM -SN BKN019 OVC027 M05/M07 A2986 RMK VIS VRB 3/4-2 1/4 SLP120

Settings

Location code

InnerDrive.Weather 4.0.6615.0 Release CLR 4.0.30319.42000
Copyright ©2018 Inner Drive Technology. All rights reserved. Portions Copyright ©1986-2018 David Braverman.

Find weather

Site navigation


Skip Navigation Links

Place info

Page info

PayPal - The safer, easier way to pay online!

Return home.

Copyright ©2018 Inner Drive Technology. Purveyors of fine, hand-crafted computer software. Page printed 2018-05-25T12:40:49 UTC.